sensor_id;sensor_type;location;lat;lon;timestamp;temperature;humidity
38756;DHT22;77170;43.486;-1.508;2024-03-22T00:01:51;20.00;54.80
38756;DHT22;77170;43.486;-1.508;2024-03-22T00:04:18;20.00;54.80
38756;DHT22;77170;43.486;-1.508;2024-03-22T00:06:46;19.90;54.80
38756;DHT22;77170;43.486;-1.508;2024-03-22T00:09:14;19.90;54.80
38756;DHT22;77170;43.486;-1.508;2024-03-22T00:11:41;19.90;54.80
38756;DHT22;77170;43.486;-1.508;2024-03-22T00:14:07;19.90;54.70
38756;DHT22;77170;43.486;-1.508;2024-03-22T00:16:34;19.90;55.10
38756;DHT22;77170;43.486;-1.508;2024-03-22T00:19:00;19.90;54.80
38756;DHT22;77170;43.486;-1.508;2024-03-22T00:21:26;19.90;54.70
38756;DHT22;77170;43.486;-1.508;2024-03-22T00:23:52;19.90;54.70
38756;DHT22;77170;43.486;-1.508;2024-03-22T00:26:18;19.90;54.70
38756;DHT22;77170;43.486;-1.508;2024-03-22T00:28:44;19.90;54.70
38756;DHT22;77170;43.486;-1.508;2024-03-22T00:31:11;19.90;54.70
38756;DHT22;77170;43.486;-1.508;2024-03-22T00:33:37;19.90;54.70
38756;DHT22;77170;43.486;-1.508;2024-03-22T00:36:03;19.90;54.70
38756;DHT22;77170;43.486;-1.508;2024-03-22T00:38:29;19.90;55.10
38756;DHT22;77170;43.486;-1.508;2024-03-22T00:40:55;19.90;54.70
38756;DHT22;77170;43.486;-1.508;2024-03-22T00:43:21;19.90;54.70
38756;DHT22;77170;43.486;-1.508;2024-03-22T00:45:47;20.00;54.70
38756;DHT22;77170;43.486;-1.508;2024-03-22T00:48:13;19.90;54.70
38756;DHT22;77170;43.486;-1.508;2024-03-22T00:50:40;20.00;54.70
38756;DHT22;77170;43.486;-1.508;2024-03-22T00:53:06;19.90;54.70
38756;DHT22;77170;43.486;-1.508;2024-03-22T00:55:33;19.90;54.70
38756;DHT22;77170;43.486;-1.508;2024-03-22T00:58:00;19.90;54.70
38756;DHT22;77170;43.486;-1.508;2024-03-22T01:00:26;19.90;54.70
38756;DHT22;77170;43.486;-1.508;2024-03-22T01:02:52;19.90;54.60
38756;DHT22;77170;43.486;-1.508;2024-03-22T01:05:18;19.90;54.60
38756;DHT22;77170;43.486;-1.508;2024-03-22T01:07:44;19.90;54.60
38756;DHT22;77170;43.486;-1.508;2024-03-22T01:10:11;19.90;54.60
38756;DHT22;77170;43.486;-1.508;2024-03-22T01:12:40;19.90;54.60
38756;DHT22;77170;43.486;-1.508;2024-03-22T01:15:07;19.90;54.60
38756;DHT22;77170;43.486;-1.508;2024-03-22T01:17:35;19.90;54.60
38756;DHT22;77170;43.486;-1.508;2024-03-22T01:20:02;19.90;54.70
38756;DHT22;77170;43.486;-1.508;2024-03-22T01:22:28;19.90;54.70
38756;DHT22;77170;43.486;-1.508;2024-03-22T01:24:54;19.90;54.70
38756;DHT22;77170;43.486;-1.508;2024-03-22T01:27:20;19.90;54.70
38756;DHT22;77170;43.486;-1.508;2024-03-22T01:29:46;19.80;54.60
38756;DHT22;77170;43.486;-1.508;2024-03-22T01:32:13;19.90;54.70
38756;DHT22;77170;43.486;-1.508;2024-03-22T01:34:39;19.90;54.70
38756;DHT22;77170;43.486;-1.508;2024-03-22T01:37:05;19.90;54.70
38756;DHT22;77170;43.486;-1.508;2024-03-22T01:39:32;19.90;54.70
38756;DHT22;77170;43.486;-1.508;2024-03-22T01:41:57;19.90;54.60
38756;DHT22;77170;43.486;-1.508;2024-03-22T01:44:32;19.90;54.70
38756;DHT22;77170;43.486;-1.508;2024-03-22T01:46:58;19.90;54.60
38756;DHT22;77170;43.486;-1.508;2024-03-22T01:49:28;19.90;54.60
38756;DHT22;77170;43.486;-1.508;2024-03-22T01:51:54;19.90;54.60
38756;DHT22;77170;43.486;-1.508;2024-03-22T01:54:21;19.90;54.60
38756;DHT22;77170;43.486;-1.508;2024-03-22T01:56:47;19.90;54.60
38756;DHT22;77170;43.486;-1.508;2024-03-22T01:59:14;19.90;54.60
38756;DHT22;77170;43.486;-1.508;2024-03-22T02:01:40;19.90;54.70
38756;DHT22;77170;43.486;-1.508;2024-03-22T02:04:06;19.80;54.60
38756;DHT22;77170;43.486;-1.508;2024-03-22T02:06:32;19.90;54.70
38756;DHT22;77170;43.486;-1.508;2024-03-22T02:08:58;19.90;54.60
38756;DHT22;77170;43.486;-1.508;2024-03-22T02:11:29;19.80;54.60
38756;DHT22;77170;43.486;-1.508;2024-03-22T02:13:55;19.90;54.70
38756;DHT22;77170;43.486;-1.508;2024-03-22T02:16:21;19.80;54.60
38756;DHT22;77170;43.486;-1.508;2024-03-22T02:18:47;19.80;54.70
38756;DHT22;77170;43.486;-1.508;2024-03-22T02:21:16;19.90;54.80
38756;DHT22;77170;43.486;-1.508;2024-03-22T02:23:42;19.80;54.70
38756;DHT22;77170;43.486;-1.508;2024-03-22T02:26:10;19.80;54.70
38756;DHT22;77170;43.486;-1.508;2024-03-22T02:28:36;19.80;54.70
38756;DHT22;77170;43.486;-1.508;2024-03-22T02:31:03;19.80;54.70
38756;DHT22;77170;43.486;-1.508;2024-03-22T02:33:30;19.80;54.70
38756;DHT22;77170;43.486;-1.508;2024-03-22T02:35:56;19.80;54.70
38756;DHT22;77170;43.486;-1.508;2024-03-22T02:38:22;19.80;54.70
38756;DHT22;77170;43.486;-1.508;2024-03-22T02:40:49;19.80;54.70
38756;DHT22;77170;43.486;-1.508;2024-03-22T02:43:15;19.80;54.60
38756;DHT22;77170;43.486;-1.508;2024-03-22T02:45:44;19.80;54.60
38756;DHT22;77170;43.486;-1.508;2024-03-22T02:48:10;19.80;54.60
38756;DHT22;77170;43.486;-1.508;2024-03-22T02:50:37;19.80;54.60
38756;DHT22;77170;43.486;-1.508;2024-03-22T02:53:04;19.80;54.70
38756;DHT22;77170;43.486;-1.508;2024-03-22T02:55:35;19.80;54.60
38756;DHT22;77170;43.486;-1.508;2024-03-22T02:58:02;19.80;54.60
38756;DHT22;77170;43.486;-1.508;2024-03-22T03:00:28;19.80;54.70
38756;DHT22;77170;43.486;-1.508;2024-03-22T03:02:54;19.80;54.60
38756;DHT22;77170;43.486;-1.508;2024-03-22T03:05:20;19.80;54.60
38756;DHT22;77170;43.486;-1.508;2024-03-22T03:07:48;19.80;54.60
38756;DHT22;77170;43.486;-1.508;2024-03-22T03:10:14;19.80;54.70
38756;DHT22;77170;43.486;-1.508;2024-03-22T03:12:40;19.80;54.60
38756;DHT22;77170;43.486;-1.508;2024-03-22T03:15:06;19.80;54.60
38756;DHT22;77170;43.486;-1.508;2024-03-22T03:17:35;19.80;54.60
38756;DHT22;77170;43.486;-1.508;2024-03-22T03:20:02;19.80;54.70
38756;DHT22;77170;43.486;-1.508;2024-03-22T03:22:30;19.80;54.70
38756;DHT22;77170;43.486;-1.508;2024-03-22T03:24:56;19.80;54.70
38756;DHT22;77170;43.486;-1.508;2024-03-22T03:27:22;19.80;54.70
38756;DHT22;77170;43.486;-1.508;2024-03-22T03:29:48;19.80;54.60
38756;DHT22;77170;43.486;-1.508;2024-03-22T03:32:15;19.80;54.60
38756;DHT22;77170;43.486;-1.508;2024-03-22T03:34:40;19.80;54.60
38756;DHT22;77170;43.486;-1.508;2024-03-22T03:37:06;19.80;54.60
38756;DHT22;77170;43.486;-1.508;2024-03-22T03:40:00;19.80;54.60
38756;DHT22;77170;43.486;-1.508;2024-03-22T03:42:26;19.80;54.60
38756;DHT22;77170;43.486;-1.508;2024-03-22T03:44:52;19.80;54.60
38756;DHT22;77170;43.486;-1.508;2024-03-22T03:47:18;19.70;54.60
38756;DHT22;77170;43.486;-1.508;2024-03-22T03:49:48;19.70;54.60
38756;DHT22;77170;43.486;-1.508;2024-03-22T03:52:14;19.70;54.60
38756;DHT22;77170;43.486;-1.508;2024-03-22T03:54:40;19.80;54.60
38756;DHT22;77170;43.486;-1.508;2024-03-22T03:57:06;19.70;54.60
38756;DHT22;77170;43.486;-1.508;2024-03-22T03:59:33;19.70;54.60
38756;DHT22;77170;43.486;-1.508;2024-03-22T04:01:59;19.70;54.60
38756;DHT22;77170;43.486;-1.508;2024-03-22T04:04:25;19.70;54.60
38756;DHT22;77170;43.486;-1.508;2024-03-22T04:06:51;19.70;54.60
38756;DHT22;77170;43.486;-1.508;2024-03-22T04:09:17;19.70;54.60
38756;DHT22;77170;43.486;-1.508;2024-03-22T04:11:43;19.70;54.60
38756;DHT22;77170;43.486;-1.508;2024-03-22T04:14:09;19.70;54.60
38756;DHT22;77170;43.486;-1.508;2024-03-22T04:16:36;19.80;54.60
38756;DHT22;77170;43.486;-1.508;2024-03-22T04:19:02;19.70;54.60
38756;DHT22;77170;43.486;-1.508;2024-03-22T04:21:28;19.70;54.60
38756;DHT22;77170;43.486;-1.508;2024-03-22T04:23:54;19.70;54.60
38756;DHT22;77170;43.486;-1.508;2024-03-22T04:26:20;19.70;54.60
38756;DHT22;77170;43.486;-1.508;2024-03-22T04:28:49;19.70;54.60
38756;DHT22;77170;43.486;-1.508;2024-03-22T04:31:15;19.80;54.60
38756;DHT22;77170;43.486;-1.508;2024-03-22T04:33:41;19.70;54.50
38756;DHT22;77170;43.486;-1.508;2024-03-22T04:36:07;19.70;54.60
38756;DHT22;77170;43.486;-1.508;2024-03-22T04:38:36;19.70;54.60
38756;DHT22;77170;43.486;-1.508;2024-03-22T04:41:02;19.70;54.50
38756;DHT22;77170;43.486;-1.508;2024-03-22T04:43:28;19.70;54.50
38756;DHT22;77170;43.486;-1.508;2024-03-22T04:45:54;19.70;54.50
38756;DHT22;77170;43.486;-1.508;2024-03-22T04:48:21;19.70;54.50
38756;DHT22;77170;43.486;-1.508;2024-03-22T04:50:51;19.70;54.50
38756;DHT22;77170;43.486;-1.508;2024-03-22T04:53:18;19.60;54.50
38756;DHT22;77170;43.486;-1.508;2024-03-22T04:55:44;19.70;54.50
38756;DHT22;77170;43.486;-1.508;2024-03-22T04:58:15;19.70;54.50
38756;DHT22;77170;43.486;-1.508;2024-03-22T05:00:41;19.70;54.50
38756;DHT22;77170;43.486;-1.508;2024-03-22T05:03:07;19.60;54.50
38756;DHT22;77170;43.486;-1.508;2024-03-22T05:05:34;19.60;54.60
38756;DHT22;77170;43.486;-1.508;2024-03-22T05:08:01;19.60;54.60
38756;DHT22;77170;43.486;-1.508;2024-03-22T05:10:28;19.60;54.60
38756;DHT22;77170;43.486;-1.508;2024-03-22T05:12:57;19.60;54.60
38756;DHT22;77170;43.486;-1.508;2024-03-22T05:15:24;19.60;54.60
38756;DHT22;77170;43.486;-1.508;2024-03-22T05:17:57;19.60;54.50
38756;DHT22;77170;43.486;-1.508;2024-03-22T05:20:23;19.60;54.50
38756;DHT22;77170;43.486;-1.508;2024-03-22T05:22:49;19.60;54.50
38756;DHT22;77170;43.486;-1.508;2024-03-22T05:25:16;19.70;54.60
38756;DHT22;77170;43.486;-1.508;2024-03-22T05:27:42;19.60;54.50
38756;DHT22;77170;43.486;-1.508;2024-03-22T05:30:09;19.70;54.60
38756;DHT22;77170;43.486;-1.508;2024-03-22T05:32:36;19.60;54.50
38756;DHT22;77170;43.486;-1.508;2024-03-22T05:35:02;19.60;54.50
38756;DHT22;77170;43.486;-1.508;2024-03-22T05:37:28;19.60;54.50
38756;DHT22;77170;43.486;-1.508;2024-03-22T05:39:54;19.60;54.50
38756;DHT22;77170;43.486;-1.508;2024-03-22T05:42:24;19.60;54.60
38756;DHT22;77170;43.486;-1.508;2024-03-22T05:44:50;19.60;54.60
38756;DHT22;77170;43.486;-1.508;2024-03-22T05:47:18;19.60;54.60
38756;DHT22;77170;43.486;-1.508;2024-03-22T05:49:46;19.60;54.60
38756;DHT22;77170;43.486;-1.508;2024-03-22T05:52:12;19.60;54.60
38756;DHT22;77170;43.486;-1.508;2024-03-22T05:54:38;19.60;54.70
38756;DHT22;77170;43.486;-1.508;2024-03-22T05:57:04;19.60;54.70
38756;DHT22;77170;43.486;-1.508;2024-03-22T05:59:33;19.60;54.70
38756;DHT22;77170;43.486;-1.508;2024-03-22T06:02:00;19.60;54.70
38756;DHT22;77170;43.486;-1.508;2024-03-22T06:04:26;19.70;54.90
38756;DHT22;77170;43.486;-1.508;2024-03-22T06:06:52;19.70;54.90
38756;DHT22;77170;43.486;-1.508;2024-03-22T06:09:18;19.70;54.90
38756;DHT22;77170;43.486;-1.508;2024-03-22T06:12:00;19.70;55.00
38756;DHT22;77170;43.486;-1.508;2024-03-22T06:14:28;19.70;55.00
38756;DHT22;77170;43.486;-1.508;2024-03-22T06:16:54;19.70;54.90
38756;DHT22;77170;43.486;-1.508;2024-03-22T06:19:20;19.70;54.90
38756;DHT22;77170;43.486;-1.508;2024-03-22T06:21:46;19.70;54.90
38756;DHT22;77170;43.486;-1.508;2024-03-22T06:24:12;19.70;54.90
38756;DHT22;77170;43.486;-1.508;2024-03-22T06:26:38;19.60;55.00
38756;DHT22;77170;43.486;-1.508;2024-03-22T06:29:04;19.70;55.00
38756;DHT22;77170;43.486;-1.508;2024-03-22T06:31:31;19.70;55.00
38756;DHT22;77170;43.486;-1.508;2024-03-22T06:33:57;19.70;55.00
38756;DHT22;77170;43.486;-1.508;2024-03-22T06:36:33;19.60;55.00
38756;DHT22;77170;43.486;-1.508;2024-03-22T06:38:59;19.60;55.00
38756;DHT22;77170;43.486;-1.508;2024-03-22T06:41:27;19.60;55.00
38756;DHT22;77170;43.486;-1.508;2024-03-22T06:43:53;19.60;55.00
38756;DHT22;77170;43.486;-1.508;2024-03-22T06:46:19;19.60;55.10
38756;DHT22;77170;43.486;-1.508;2024-03-22T06:48:46;19.60;55.50
38756;DHT22;77170;43.486;-1.508;2024-03-22T06:51:12;19.60;55.10
38756;DHT22;77170;43.486;-1.508;2024-03-22T06:53:38;19.60;55.10
38756;DHT22;77170;43.486;-1.508;2024-03-22T06:56:04;19.60;55.10
38756;DHT22;77170;43.486;-1.508;2024-03-22T06:58:30;19.60;55.10
38756;DHT22;77170;43.486;-1.508;2024-03-22T07:00:56;19.70;55.20
38756;DHT22;77170;43.486;-1.508;2024-03-22T07:03:22;19.70;55.20
38756;DHT22;77170;43.486;-1.508;2024-03-22T07:05:48;19.70;55.20
38756;DHT22;77170;43.486;-1.508;2024-03-22T07:08:14;19.80;55.20
38756;DHT22;77170;43.486;-1.508;2024-03-22T07:10:40;19.80;55.30
38756;DHT22;77170;43.486;-1.508;2024-03-22T07:13:07;19.80;55.30
38756;DHT22;77170;43.486;-1.508;2024-03-22T07:15:34;19.70;55.30
38756;DHT22;77170;43.486;-1.508;2024-03-22T07:18:00;19.70;55.30
38756;DHT22;77170;43.486;-1.508;2024-03-22T07:25:20;18.90;55.00
38756;DHT22;77170;43.486;-1.508;2024-03-22T07:27:46;18.00;56.50
38756;DHT22;77170;43.486;-1.508;2024-03-22T07:30:14;17.30;57.60
38756;DHT22;77170;43.486;-1.508;2024-03-22T07:32:46;16.80;58.80
38756;DHT22;77170;43.486;-1.508;2024-03-22T07:35:13;16.40;59.70
38756;DHT22;77170;43.486;-1.508;2024-03-22T07:37:42;16.30;60.60
38756;DHT22;77170;43.486;-1.508;2024-03-22T07:40:11;16.20;61.30
38756;DHT22;77170;43.486;-1.508;2024-03-22T07:42:40;16.00;62.00
38756;DHT22;77170;43.486;-1.508;2024-03-22T07:45:10;16.00;62.80
38756;DHT22;77170;43.486;-1.508;2024-03-22T07:47:36;15.90;63.40
38756;DHT22;77170;43.486;-1.508;2024-03-22T07:50:03;15.90;63.60
38756;DHT22;77170;43.486;-1.508;2024-03-22T07:52:32;15.80;64.20
38756;DHT22;77170;43.486;-1.508;2024-03-22T07:54:58;15.80;64.40
38756;DHT22;77170;43.486;-1.508;2024-03-22T07:57:27;15.80;64.70
38756;DHT22;77170;43.486;-1.508;2024-03-22T07:59:56;15.80;65.10
38756;DHT22;77170;43.486;-1.508;2024-03-22T08:02:23;15.80;65.40
38756;DHT22;77170;43.486;-1.508;2024-03-22T08:04:49;15.80;65.50
38756;DHT22;77170;43.486;-1.508;2024-03-22T08:07:15;15.80;65.90
38756;DHT22;77170;43.486;-1.508;2024-03-22T08:09:42;15.90;66.00
38756;DHT22;77170;43.486;-1.508;2024-03-22T08:12:11;15.90;66.00
38756;DHT22;77170;43.486;-1.508;2024-03-22T08:14:37;15.90;66.10
38756;DHT22;77170;43.486;-1.508;2024-03-22T08:17:10;16.00;66.20
38756;DHT22;77170;43.486;-1.508;2024-03-22T08:19:37;16.00;66.30
38756;DHT22;77170;43.486;-1.508;2024-03-22T08:22:06;16.10;66.50
38756;DHT22;77170;43.486;-1.508;2024-03-22T08:24:32;16.10;66.40
38756;DHT22;77170;43.486;-1.508;2024-03-22T08:27:01;16.10;66.60
38756;DHT22;77170;43.486;-1.508;2024-03-22T08:29:28;16.10;66.60
38756;DHT22;77170;43.486;-1.508;2024-03-22T08:31:54;16.10;66.50
38756;DHT22;77170;43.486;-1.508;2024-03-22T08:34:27;16.20;66.60
38756;DHT22;77170;43.486;-1.508;2024-03-22T08:36:58;16.20;66.40
38756;DHT22;77170;43.486;-1.508;2024-03-22T08:39:32;16.20;66.30
38756;DHT22;77170;43.486;-1.508;2024-03-22T08:42:07;16.20;66.00
38756;DHT22;77170;43.486;-1.508;2024-03-22T08:44:38;16.20;65.90
38756;DHT22;77170;43.486;-1.508;2024-03-22T08:47:11;16.30;66.00
38756;DHT22;77170;43.486;-1.508;2024-03-22T08:49:40;16.30;66.50
38756;DHT22;77170;43.486;-1.508;2024-03-22T08:52:12;16.30;66.00
38756;DHT22;77170;43.486;-1.508;2024-03-22T08:54:41;16.30;66.10
38756;DHT22;77170;43.486;-1.508;2024-03-22T08:57:11;16.40;66.00
38756;DHT22;77170;43.486;-1.508;2024-03-22T08:59:40;16.40;66.00
38756;DHT22;77170;43.486;-1.508;2024-03-22T09:02:17;16.40;65.90
38756;DHT22;77170;43.486;-1.508;2024-03-22T09:04:55;16.50;65.90
38756;DHT22;77170;43.486;-1.508;2024-03-22T09:07:30;16.60;65.60
38756;DHT22;77170;43.486;-1.508;2024-03-22T09:10:06;16.70;65.20
38756;DHT22;77170;43.486;-1.508;2024-03-22T09:12:41;16.80;64.80
38756;DHT22;77170;43.486;-1.508;2024-03-22T09:15:16;16.90;64.50
38756;DHT22;77170;43.486;-1.508;2024-03-22T09:17:51;16.90;64.40
38756;DHT22;77170;43.486;-1.508;2024-03-22T09:20:20;17.00;64.10
38756;DHT22;77170;43.486;-1.508;2024-03-22T09:22:54;17.10;64.00
38756;DHT22;77170;43.486;-1.508;2024-03-22T09:25:24;17.10;63.60
38756;DHT22;77170;43.486;-1.508;2024-03-22T09:27:53;17.20;63.30
38756;DHT22;77170;43.486;-1.508;2024-03-22T09:30:20;17.10;63.10
38756;DHT22;77170;43.486;-1.508;2024-03-22T09:32:54;17.20;63.20
38756;DHT22;77170;43.486;-1.508;2024-03-22T09:35:29;17.20;62.90
38756;DHT22;77170;43.486;-1.508;2024-03-22T09:38:04;17.30;62.80
38756;DHT22;77170;43.486;-1.508;2024-03-22T09:40:38;17.30;62.90
38756;DHT22;77170;43.486;-1.508;2024-03-22T09:43:07;17.40;62.50
38756;DHT22;77170;43.486;-1.508;2024-03-22T09:45:37;17.40;62.20
38756;DHT22;77170;43.486;-1.508;2024-03-22T09:48:10;17.50;62.10
38756;DHT22;77170;43.486;-1.508;2024-03-22T09:50:42;17.50;61.90
38756;DHT22;77170;43.486;-1.508;2024-03-22T09:53:10;17.60;61.90
38756;DHT22;77170;43.486;-1.508;2024-03-22T09:55:39;17.60;61.70
38756;DHT22;77170;43.486;-1.508;2024-03-22T09:58:10;17.70;61.70
38756;DHT22;77170;43.486;-1.508;2024-03-22T10:00:38;17.80;61.50
38756;DHT22;77170;43.486;-1.508;2024-03-22T10:03:06;17.70;61.20
38756;DHT22;77170;43.486;-1.508;2024-03-22T10:05:37;17.70;61.80
38756;DHT22;77170;43.486;-1.508;2024-03-22T10:08:06;17.80;61.00
38756;DHT22;77170;43.486;-1.508;2024-03-22T10:10:33;17.80;60.90
38756;DHT22;77170;43.486;-1.508;2024-03-22T10:13:06;17.90;60.70
38756;DHT22;77170;43.486;-1.508;2024-03-22T10:15:43;17.90;60.70
38756;DHT22;77170;43.486;-1.508;2024-03-22T10:18:10;17.80;60.80
38756;DHT22;77170;43.486;-1.508;2024-03-22T10:20:40;17.70;60.80
38756;DHT22;77170;43.486;-1.508;2024-03-22T10:23:09;17.70;60.90
38756;DHT22;77170;43.486;-1.508;2024-03-22T10:25:36;17.80;61.00
38756;DHT22;77170;43.486;-1.508;2024-03-22T10:28:07;17.80;60.80
38756;DHT22;77170;43.486;-1.508;2024-03-22T10:30:38;17.70;60.90
38756;DHT22;77170;43.486;-1.508;2024-03-22T10:33:09;17.70;61.40
38756;DHT22;77170;43.486;-1.508;2024-03-22T10:35:40;17.50;61.80
38756;DHT22;77170;43.486;-1.508;2024-03-22T10:38:09;17.50;62.20
38756;DHT22;77170;43.486;-1.508;2024-03-22T10:40:49;17.30;62.90
38756;DHT22;77170;43.486;-1.508;2024-03-22T10:43:27;17.30;63.40
38756;DHT22;77170;43.486;-1.508;2024-03-22T10:46:03;17.30;63.50
38756;DHT22;77170;43.486;-1.508;2024-03-22T10:48:41;17.30;63.70
38756;DHT22;77170;43.486;-1.508;2024-03-22T10:51:14;17.20;64.00
38756;DHT22;77170;43.486;-1.508;2024-03-22T10:53:47;17.10;64.30
38756;DHT22;77170;43.486;-1.508;2024-03-22T10:56:18;17.00;64.90
38756;DHT22;77170;43.486;-1.508;2024-03-22T10:58:50;17.00;65.40
38756;DHT22;77170;43.486;-1.508;2024-03-22T11:01:24;17.00;65.40
38756;DHT22;77170;43.486;-1.508;2024-03-22T11:03:51;17.00;65.40
38756;DHT22;77170;43.486;-1.508;2024-03-22T11:06:30;16.90;65.50
38756;DHT22;77170;43.486;-1.508;2024-03-22T11:09:00;16.90;65.70
38756;DHT22;77170;43.486;-1.508;2024-03-22T11:11:30;17.00;66.00
38756;DHT22;77170;43.486;-1.508;2024-03-22T11:14:12;16.90;65.80
38756;DHT22;77170;43.486;-1.508;2024-03-22T11:16:48;17.00;66.00
38756;DHT22;77170;43.486;-1.508;2024-03-22T11:19:22;17.00;66.00
38756;DHT22;77170;43.486;-1.508;2024-03-22T11:21:51;17.00;66.00
38756;DHT22;77170;43.486;-1.508;2024-03-22T11:24:25;17.00;66.30
38756;DHT22;77170;43.486;-1.508;2024-03-22T11:26:54;17.10;66.20
38756;DHT22;77170;43.486;-1.508;2024-03-22T11:29:24;17.10;66.10
38756;DHT22;77170;43.486;-1.508;2024-03-22T11:32:11;17.10;65.90
38756;DHT22;77170;43.486;-1.508;2024-03-22T11:34:44;17.20;66.00
38756;DHT22;77170;43.486;-1.508;2024-03-22T11:37:13;17.20;66.10
38756;DHT22;77170;43.486;-1.508;2024-03-22T11:39:43;17.30;66.20
38756;DHT22;77170;43.486;-1.508;2024-03-22T11:42:12;17.40;66.10
38756;DHT22;77170;43.486;-1.508;2024-03-22T11:44:47;17.50;66.20
38756;DHT22;77170;43.486;-1.508;2024-03-22T11:47:17;17.50;66.00
38756;DHT22;77170;43.486;-1.508;2024-03-22T11:49:50;17.50;65.80
38756;DHT22;77170;43.486;-1.508;2024-03-22T11:52:27;17.60;65.70
38756;DHT22;77170;43.486;-1.508;2024-03-22T11:54:56;17.70;65.60
38756;DHT22;77170;43.486;-1.508;2024-03-22T11:57:30;17.70;65.40
38756;DHT22;77170;43.486;-1.508;2024-03-22T12:00:08;17.80;65.50
38756;DHT22;77170;43.486;-1.508;2024-03-22T12:02:38;17.90;65.30
38756;DHT22;77170;43.486;-1.508;2024-03-22T12:05:08;17.90;65.20
38756;DHT22;77170;43.486;-1.508;2024-03-22T12:07:39;18.00;65.30
38756;DHT22;77170;43.486;-1.508;2024-03-22T12:10:08;18.00;65.20
38756;DHT22;77170;43.486;-1.508;2024-03-22T12:12:34;18.10;65.10
38756;DHT22;77170;43.486;-1.508;2024-03-22T12:15:03;18.10;64.90
38756;DHT22;77170;43.486;-1.508;2024-03-22T12:17:32;18.20;64.70
38756;DHT22;77170;43.486;-1.508;2024-03-22T12:20:03;18.10;64.60
38756;DHT22;77170;43.486;-1.508;2024-03-22T12:22:30;18.10;64.80
38756;DHT22;77170;43.486;-1.508;2024-03-22T12:24:59;18.00;64.70
38756;DHT22;77170;43.486;-1.508;2024-03-22T12:27:26;17.90;64.90
38756;DHT22;77170;43.486;-1.508;2024-03-22T12:29:55;17.90;65.00
38756;DHT22;77170;43.486;-1.508;2024-03-22T12:32:26;17.90;65.00
38756;DHT22;77170;43.486;-1.508;2024-03-22T12:34:55;17.90;65.10
38756;DHT22;77170;43.486;-1.508;2024-03-22T12:37:30;17.90;65.30
38756;DHT22;77170;43.486;-1.508;2024-03-22T12:39:56;17.90;65.30
38756;DHT22;77170;43.486;-1.508;2024-03-22T12:42:28;17.90;65.30
38756;DHT22;77170;43.486;-1.508;2024-03-22T12:45:00;17.90;65.20
38756;DHT22;77170;43.486;-1.508;2024-03-22T12:47:30;17.90;65.20
38756;DHT22;77170;43.486;-1.508;2024-03-22T12:49:56;17.90;65.60
38756;DHT22;77170;43.486;-1.508;2024-03-22T12:52:25;17.90;65.00
38756;DHT22;77170;43.486;-1.508;2024-03-22T12:54:52;17.90;64.70
38756;DHT22;77170;43.486;-1.508;2024-03-22T12:57:20;17.80;64.70
38756;DHT22;77170;43.486;-1.508;2024-03-22T12:59:46;17.80;64.70
38756;DHT22;77170;43.486;-1.508;2024-03-22T13:02:13;17.80;64.60
38756;DHT22;77170;43.486;-1.508;2024-03-22T13:04:39;17.80;64.60
38756;DHT22;77170;43.486;-1.508;2024-03-22T13:07:05;17.70;64.40
38756;DHT22;77170;43.486;-1.508;2024-03-22T13:09:32;17.70;64.40
38756;DHT22;77170;43.486;-1.508;2024-03-22T13:11:58;17.70;64.20
38756;DHT22;77170;43.486;-1.508;2024-03-22T13:14:24;17.70;64.40
38756;DHT22;77170;43.486;-1.508;2024-03-22T13:16:50;17.70;64.10
38756;DHT22;77170;43.486;-1.508;2024-03-22T13:19:17;17.70;63.90
38756;DHT22;77170;43.486;-1.508;2024-03-22T13:21:44;17.70;63.80
38756;DHT22;77170;43.486;-1.508;2024-03-22T13:24:13;17.90;63.20
38756;DHT22;77170;43.486;-1.508;2024-03-22T13:26:39;18.30;62.40
38756;DHT22;77170;43.486;-1.508;2024-03-22T13:29:05;18.80;61.30
38756;DHT22;77170;43.486;-1.508;2024-03-22T13:31:31;19.20;59.60
38756;DHT22;77170;43.486;-1.508;2024-03-22T13:33:57;19.60;58.60
38756;DHT22;77170;43.486;-1.508;2024-03-22T13:36:23;19.90;58.00
38756;DHT22;77170;43.486;-1.508;2024-03-22T13:38:51;20.00;57.40
38756;DHT22;77170;43.486;-1.508;2024-03-22T13:41:20;20.10;57.20
38756;DHT22;77170;43.486;-1.508;2024-03-22T13:43:46;19.90;57.00
38756;DHT22;77170;43.486;-1.508;2024-03-22T13:46:12;19.90;56.80
38756;DHT22;77170;43.486;-1.508;2024-03-22T13:48:40;19.80;57.10
38756;DHT22;77170;43.486;-1.508;2024-03-22T13:51:06;19.60;57.50
38756;DHT22;77170;43.486;-1.508;2024-03-22T13:53:33;19.50;57.70
38756;DHT22;77170;43.486;-1.508;2024-03-22T13:55:59;19.50;57.80
38756;DHT22;77170;43.486;-1.508;2024-03-22T13:58:26;19.40;57.90
38756;DHT22;77170;43.486;-1.508;2024-03-22T14:00:53;19.20;58.20
38756;DHT22;77170;43.486;-1.508;2024-03-22T14:03:19;19.20;58.50
38756;DHT22;77170;43.486;-1.508;2024-03-22T14:05:45;19.00;58.80
38756;DHT22;77170;43.486;-1.508;2024-03-22T14:08:12;18.90;59.00
38756;DHT22;77170;43.486;-1.508;2024-03-22T14:10:38;18.90;59.10
38756;DHT22;77170;43.486;-1.508;2024-03-22T14:13:04;19.00;59.20
38756;DHT22;77170;43.486;-1.508;2024-03-22T14:15:33;18.80;59.30
38756;DHT22;77170;43.486;-1.508;2024-03-22T14:18:01;18.80;59.40
38756;DHT22;77170;43.486;-1.508;2024-03-22T14:20:29;18.70;59.70
38756;DHT22;77170;43.486;-1.508;2024-03-22T14:22:56;18.60;60.00
38756;DHT22;77170;43.486;-1.508;2024-03-22T14:25:23;18.50;59.80
38756;DHT22;77170;43.486;-1.508;2024-03-22T14:27:53;18.40;60.20
38756;DHT22;77170;43.486;-1.508;2024-03-22T14:30:19;18.40;60.50
38756;DHT22;77170;43.486;-1.508;2024-03-22T14:32:50;18.40;60.70
38756;DHT22;77170;43.486;-1.508;2024-03-22T14:35:19;18.30;60.90
38756;DHT22;77170;43.486;-1.508;2024-03-22T14:37:48;18.20;61.30
38756;DHT22;77170;43.486;-1.508;2024-03-22T14:40:18;18.10;61.90
38756;DHT22;77170;43.486;-1.508;2024-03-22T14:42:47;18.10;62.10
38756;DHT22;77170;43.486;-1.508;2024-03-22T14:45:13;18.10;62.30
38756;DHT22;77170;43.486;-1.508;2024-03-22T14:47:46;18.00;62.60
38756;DHT22;77170;43.486;-1.508;2024-03-22T14:50:15;17.90;63.00
38756;DHT22;77170;43.486;-1.508;2024-03-22T14:52:52;17.80;63.40
38756;DHT22;77170;43.486;-1.508;2024-03-22T14:55:21;17.70;63.50
38756;DHT22;77170;43.486;-1.508;2024-03-22T14:57:51;17.70;63.80
38756;DHT22;77170;43.486;-1.508;2024-03-22T15:00:20;17.70;63.90
38756;DHT22;77170;43.486;-1.508;2024-03-22T15:02:55;17.70;64.50
38756;DHT22;77170;43.486;-1.508;2024-03-22T15:05:25;17.60;64.10
38756;DHT22;77170;43.486;-1.508;2024-03-22T15:07:56;17.60;64.30
38756;DHT22;77170;43.486;-1.508;2024-03-22T15:10:25;17.60;64.60
38756;DHT22;77170;43.486;-1.508;2024-03-22T15:12:57;17.60;64.80
38756;DHT22;77170;43.486;-1.508;2024-03-22T15:15:26;17.50;64.80
38756;DHT22;77170;43.486;-1.508;2024-03-22T15:17:56;17.50;65.00
38756;DHT22;77170;43.486;-1.508;2024-03-22T15:20:25;17.50;64.80
38756;DHT22;77170;43.486;-1.508;2024-03-22T15:22:58;17.50;64.80
38756;DHT22;77170;43.486;-1.508;2024-03-22T15:25:27;17.40;65.00
38756;DHT22;77170;43.486;-1.508;2024-03-22T15:28:11;17.40;65.30